Main page
METAR-TAF:

METAR-TAF

Airports :

Helsinki Airport

Helsinki, Finland

latitude: 60-19N, longitude: 024-58E, elevation: 51 m

Current weather observation

The report was made 20 minutes ago, at 22:20 UTC
Wind 7 kt from the South/Southwest
Temperature 13°C
Humidity 72%
Pressure 1019 hPa
Visibility 10 km or more
no clouds below 1500 m and no cumulonimbus

METAR: EFHK 162220Z 21007KT CAVOK 13/08 Q1019 NOSIG

Time: 01:40 (22:40 UTC)

Forecast

The report was made 2 hours and 17 minutes ago, at 20:23 UTC
Forecast valid from 16 at 21 UTC to 17 at 21 UTC
Wind 6 kt from the Southwest
Visibility 10 km or more
no clouds below 1500 m and no cumulonimbus
Probability 30% :
Temporary
from 17 at 01 UTC to 17 at 04 UTC
Visibility: 4000 m
mist, Shallow fog

TAF: EFHK 162023Z 1621/1721 23006KT CAVOK PROB30 TEMPO 1701/1704 4000 BR MIFG

Weather observations and forecasts of more than 4000 airports (METAR and TAF reports).

The available stations are represented by yellow and red dots on the map.

Hover mouse over dot to see the name of the station.

Then click to see weather observations and forecasts.

To change the map : click on the green buttons with a black cross to zoom in, on the green button with a dash to zoom out, or on the green arrows for adjacent maps.


METAR-TAF: